createdAt,value
2022-10-05T00:00:06.002Z,101842.75
2022-10-05T00:02:32.615Z,101832.13
2022-10-05T00:04:59.343Z,101831.06
2022-10-05T00:07:25.935Z,101838.25
2022-10-05T00:09:56.501Z,101840.09
2022-10-05T00:12:24.788Z,101833.97
2022-10-05T00:14:55.331Z,101839.28
2022-10-05T00:17:24.332Z,101842.75
2022-10-05T00:19:54.452Z,101839.28
2022-10-05T00:22:30.963Z,101827.84
2022-10-05T00:25:03.181Z,101833.16
2022-10-05T00:27:36.729Z,101819.34
2022-10-05T00:30:19.894Z,101820.13
2022-10-05T00:32:47.189Z,101819.34
2022-10-05T00:35:15.558Z,101816.94
2022-10-05T00:37:42.430Z,101820.66
2022-10-05T00:40:35.415Z,101810.84
2022-10-05T00:43:08.034Z,101813.25
2022-10-05T00:45:48.196Z,101801.81
2022-10-05T00:48:48.269Z,101802.06
2022-10-05T00:51:29.762Z,101810.28
2022-10-05T00:54:24.857Z,101798.84
2022-10-05T00:57:23.995Z,101797.53
2022-10-05T01:00:02.309Z,101799.41
2022-10-05T01:03:07.610Z,101796.19
2022-10-05T01:05:53.475Z,101793.78
2022-10-05T01:08:44.126Z,101789.44
2022-10-05T01:11:39.083Z,101782.22
2022-10-05T01:14:05.470Z,101782.16
2022-10-05T01:16:47.465Z,101786.13
2022-10-05T01:19:26.289Z,101782.09
2022-10-05T01:22:14.961Z,101786.59
2022-10-05T01:24:57.935Z,101780.81
2022-10-05T01:27:53.211Z,101772.59
2022-10-05T01:30:21.531Z,101761.16
2022-10-05T01:32:57.726Z,101757.44
2022-10-05T01:35:33.831Z,101748.38
2022-10-05T01:38:03.455Z,101740.91
2022-10-05T01:40:39.166Z,101730.75
2022-10-05T01:43:34.267Z,101733.94
2022-10-05T01:46:11.061Z,101737.09
2022-10-05T01:48:52.123Z,101732.28
2022-10-05T01:51:41.862Z,101724.81
2022-10-05T01:54:27.127Z,101725.84
2022-10-05T01:57:29.036Z,101726.34
2022-10-05T02:00:14.302Z,101722.06
2022-10-05T02:03:03.081Z,101714.09
2022-10-05T02:05:37.879Z,101701.06
2022-10-05T02:08:10.931Z,101700.25
2022-10-05T02:10:40.402Z,101693.34
2022-10-05T02:13:16.841Z,101692.78
2022-10-05T02:16:29.282Z,101691.19
2022-10-05T02:19:14.653Z,101692.78
2022-10-05T02:21:43.732Z,101693.84
2022-10-05T02:24:17.099Z,101706.63
2022-10-05T02:26:44.974Z,101689.63
2022-10-05T02:29:15.361Z,101686.19
2022-10-05T02:31:54.805Z,101676.06
2022-10-05T02:34:29.984Z,101674.69
2022-10-05T02:37:12.930Z,101669.88
2022-10-05T02:39:53.134Z,101667.16
2022-10-05T02:42:41.439Z,101693.94
2022-10-05T02:45:07.864Z,101686.78
2022-10-05T02:48:02.938Z,101677.78
2022-10-05T02:50:50.769Z,101670.88
2022-10-05T02:53:28.513Z,101663.97
2022-10-05T02:56:08.560Z,101648.31
2022-10-05T02:58:50.791Z,101653.06
2022-10-05T03:01:25.402Z,101655.97
2022-10-05T03:04:17.534Z,101666.56
2022-10-05T03:07:03.373Z,101659.41
2022-10-05T03:09:36.205Z,101662.88
2022-10-05T03:12:14.068Z,101661.81
2022-10-05T03:14:57.550Z,101660.22
2022-10-05T03:17:56.418Z,101660.78
2022-10-05T03:20:44.283Z,101660.25
2022-10-05T03:23:34.021Z,101664.25
2022-10-05T03:26:12.718Z,101665.06
2022-10-05T03:29:08.616Z,101665.06
2022-10-05T03:31:43.749Z,101667.72
2022-10-05T03:34:51.862Z,101669.88
2022-10-05T03:37:28.241Z,101667.22
2022-10-05T03:40:07.374Z,101673.09
2022-10-05T03:42:58.038Z,101661.66
2022-10-05T03:45:29.231Z,101659.81
2022-10-05T03:48:05.418Z,101664.63
2022-10-05T03:50:55.538Z,101661.97
2022-10-05T03:53:27.489Z,101668.91
2022-10-05T03:56:03.354Z,101663.59
2022-10-05T03:58:42.259Z,101667.84
2022-10-05T04:01:21.246Z,101669.19
2022-10-05T04:03:52.648Z,101660.44
2022-10-05T04:06:24.887Z,101657.22
2022-10-05T04:09:07.431Z,101647.66
2022-10-05T04:11:40.442Z,101637.03
2022-10-05T04:14:14.209Z,101647.66
2022-10-05T04:16:44.372Z,101637.03
2022-10-05T04:19:39.110Z,101646.03
2022-10-05T04:22:18.871Z,101638.09
2022-10-05T04:25:14.505Z,101641.00
2022-10-05T04:28:03.274Z,101640.75
2022-10-05T04:30:34.156Z,101634.63
2022-10-05T04:33:01.098Z,101630.13
2022-10-05T04:36:04.950Z,101631.97
2022-10-05T04:38:43.474Z,101629.56
2022-10-05T04:41:18.885Z,101624.25
2022-10-05T04:44:59.534Z,101617.34
2022-10-05T04:47:48.068Z,101614.69
2022-10-05T04:50:29.521Z,101619.19
2022-10-05T04:53:02.065Z,101621.03
2022-10-05T04:55:51.566Z,101614.13
2022-10-05T04:58:42.817Z,101605.91
2022-10-05T05:01:37.193Z,101615.50
2022-10-05T05:04:42.754Z,101617.34
2022-10-05T05:07:37.316Z,101617.91
2022-10-05T05:10:20.673Z,101609.94
2022-10-05T05:13:35.045Z,101607.53
2022-10-05T05:16:05.728Z,101604.06
2022-10-05T05:18:41.490Z,101609.38
2022-10-05T05:21:29.519Z,101597.16
2022-10-05T05:24:05.287Z,101589.19
2022-10-05T05:27:10.962Z,101591.03
2022-10-05T05:29:42.645Z,101590.78
2022-10-05T05:32:50.227Z,101592.66
2022-10-05T05:35:22.490Z,101602.47
2022-10-05T05:38:23.151Z,101592.66
2022-10-05T05:40:52.567Z,101591.03
2022-10-05T05:43:35.152Z,101596.59
2022-10-05T05:46:51.068Z,101589.94
2022-10-05T05:49:41.055Z,101601.59
2022-10-05T05:52:20.359Z,101596.28
2022-10-05T05:54:52.032Z,101598.16
2022-10-05T05:57:27.277Z,101592.84
2022-10-05T06:00:00.584Z,101586.72
2022-10-05T06:02:41.935Z,101590.19
2022-10-05T06:05:46.984Z,101585.94
2022-10-05T06:08:24.344Z,101591.00
2022-10-05T06:11:01.364Z,101585.44
2022-10-05T06:13:34.121Z,101596.28
2022-10-05T06:16:38.367Z,101592.34
2022-10-05T06:19:11.365Z,101592.34
2022-10-05T06:21:56.596Z,101602.97
2022-10-05T06:24:38.814Z,101598.75
2022-10-05T06:27:25.126Z,101587.09
2022-10-05T06:30:06.614Z,101596.41
2022-10-05T06:32:41.924Z,101591.91
2022-10-05T06:35:15.883Z,101596.72
2022-10-05T06:38:13.131Z,101592.75
2022-10-05T06:40:42.679Z,101601.31
2022-10-05T06:43:48.253Z,101596.28
2022-10-05T06:46:46.819Z,101600.06
2022-10-05T06:49:25.412Z,101602.47
2022-10-05T06:51:56.822Z,101600.34
2022-10-05T06:54:47.863Z,101597.97
2022-10-05T06:57:43.177Z,101602.22
2022-10-05T07:00:20.170Z,101603.59
2022-10-05T07:03:18.287Z,101601.47
2022-10-05T07:06:02.331Z,101604.94
2022-10-05T07:08:29.042Z,101599.66
2022-10-05T07:11:10.350Z,101602.88
2022-10-05T07:14:18.566Z,101598.41
2022-10-05T07:17:04.941Z,101605.88
2022-10-05T07:19:36.986Z,101606.19
2022-10-05T07:22:26.622Z,101595.06
2022-10-05T07:25:22.880Z,101591.88
2022-10-05T07:28:07.743Z,101595.06
2022-10-05T07:30:54.883Z,101607.28
2022-10-05T07:33:40.160Z,101600.91
2022-10-05T07:36:32.397Z,101605.44
2022-10-05T07:40:01.322Z,101601.72
2022-10-05T07:42:48.842Z,101603.84
2022-10-05T07:45:24.726Z,101605.16
2022-10-05T07:47:55.460Z,101606.50
2022-10-05T07:50:31.314Z,101601.97
2022-10-05T07:53:09.224Z,101604.13
2022-10-05T07:55:49.808Z,101595.91
2022-10-05T07:58:30.456Z,101594.59
2022-10-05T08:01:23.396Z,101596.75
2022-10-05T08:04:03.296Z,101596.50
2022-10-05T08:06:51.639Z,101596.53
2022-10-05T08:09:37.992Z,101586.69
2022-10-05T08:12:23.080Z,101592.56
2022-10-05T08:14:56.026Z,101577.16
2022-10-05T08:17:49.139Z,101592.06
2022-10-05T08:20:16.805Z,101585.44
2022-10-05T08:22:54.207Z,101583.88
2022-10-05T08:25:30.353Z,101579.09
2022-10-05T08:28:09.986Z,101574.88
2022-10-05T08:30:51.625Z,101577.81
2022-10-05T08:33:20.295Z,101575.69
2022-10-05T08:36:07.487Z,101564.00
2022-10-05T08:38:35.583Z,101575.72
2022-10-05T08:41:24.630Z,101574.16
2022-10-05T08:44:17.733Z,101569.09
2022-10-05T08:47:10.017Z,101562.47
2022-10-05T08:49:46.065Z,101568.88
2022-10-05T08:53:06.695Z,101564.63
2022-10-05T08:55:35.930Z,101557.22
2022-10-05T08:58:39.966Z,101558.31
2022-10-05T09:01:39.986Z,101553.00
2022-10-05T09:04:44.283Z,101559.66
2022-10-05T09:07:36.764Z,101553.03
2022-10-05T09:10:25.481Z,101561.56
2022-10-05T09:13:10.860Z,101560.00
2022-10-05T09:15:51.115Z,101545.63
2022-10-05T09:18:29.889Z,101537.66
2022-10-05T09:21:09.283Z,101544.56
2022-10-05T09:23:44.111Z,101545.66
2022-10-05T09:26:42.363Z,101541.41
2022-10-05T09:29:39.369Z,101542.50
2022-10-05T09:32:21.010Z,101539.56
2022-10-05T09:35:06.429Z,101538.25
2022-10-05T09:38:03.946Z,101534.50
2022-10-05T09:40:41.705Z,101529.72
2022-10-05T09:43:18.792Z,101519.06
2022-10-05T09:45:54.588Z,101521.47
2022-10-05T09:48:31.759Z,101521.19
2022-10-05T09:51:26.002Z,101514.75
2022-10-05T09:54:03.703Z,101523.28
2022-10-05T09:56:42.978Z,101517.41
2022-10-05T09:59:31.378Z,101505.91
2022-10-05T10:02:17.191Z,101505.63
2022-10-05T10:05:20.151Z,101505.03
2022-10-05T10:08:14.675Z,101503.41
2022-10-05T10:11:00.122Z,101497.50
2022-10-05T10:13:53.913Z,101498.84
2022-10-05T10:16:53.827Z,101491.84
2022-10-05T10:19:56.937Z,101491.81
2022-10-05T10:22:45.318Z,101492.84
2022-10-05T10:25:45.685Z,101488.56
2022-10-05T10:28:15.197Z,101484.53
2022-10-05T10:31:15.823Z,101490.50
2022-10-05T10:34:22.010Z,101484.34
2022-10-05T10:37:14.283Z,101486.28
2022-10-05T10:39:56.368Z,101477.75
2022-10-05T10:42:47.463Z,101476.13
2022-10-05T10:45:32.671Z,101478.56
2022-10-05T10:48:11.342Z,101477.25
2022-10-05T10:50:56.623Z,101476.19
2022-10-05T10:53:40.476Z,101478.31
2022-10-05T10:56:22.226Z,101473.25
2022-10-05T10:58:51.656Z,101475.66
2022-10-05T11:01:24.272Z,101468.97
2022-10-05T11:04:26.807Z,101470.84
2022-10-05T11:07:21.029Z,101464.97
2022-10-05T11:10:03.213Z,101469.28
2022-10-05T11:12:49.006Z,101463.13
2022-10-05T11:15:45.745Z,101463.91
2022-10-05T11:18:30.724Z,101473.50
2022-10-05T11:21:25.832Z,101468.44
2022-10-05T11:24:23.266Z,101469.22
2022-10-05T11:27:09.050Z,101468.13
2022-10-05T11:29:56.214Z,101463.75
2022-10-05T11:32:53.644Z,101456.56
2022-10-05T11:35:32.284Z,101449.38
2022-10-05T11:38:34.330Z,101455.25
2022-10-05T11:41:13.169Z,101439.75
2022-10-05T11:44:07.756Z,101434.91
2022-10-05T11:47:02.950Z,101434.34
2022-10-05T12:19:15.195Z,101419.34
2022-10-05T12:31:38.590Z,101409.38
2022-10-05T12:43:05.907Z,101402.34
2022-10-05T12:46:24.265Z,101393.47
2022-10-05T13:52:36.229Z,101386.41
2022-10-05T14:22:04.224Z,101390.97
2022-10-05T15:14:40.125Z,101432.53
2022-10-05T15:22:54.434Z,101408.19
2022-10-05T15:38:49.966Z,101422.81
2022-10-05T15:45:33.004Z,101421.50
2022-10-05T15:48:05.309Z,101423.66
2022-10-05T15:50:38.137Z,101419.66
2022-10-05T16:01:12.530Z,101416.22
2022-10-05T16:08:19.307Z,101427.72
2022-10-05T16:14:45.698Z,101430.19
2022-10-05T16:21:27.886Z,101437.97
2022-10-05T16:32:27.691Z,101447.91
2022-10-05T16:42:35.705Z,101443.38
2022-10-05T16:45:23.759Z,101450.84
2022-10-05T16:52:21.753Z,101459.38
2022-10-05T16:54:55.000Z,101462.59
2022-10-05T16:57:56.645Z,101459.66
2022-10-05T17:08:55.106Z,101465.78
2022-10-05T17:19:42.196Z,101474.31
2022-10-05T17:29:47.704Z,101471.66
2022-10-05T17:32:55.694Z,101466.31
2022-10-05T17:35:51.856Z,101480.44
2022-10-05T17:38:23.202Z,101482.56
2022-10-05T17:44:39.867Z,101491.88
2022-10-05T17:47:11.387Z,101499.06
2022-10-05T17:49:37.988Z,101499.34
2022-10-05T17:52:42.884Z,101503.59
2022-10-05T17:55:38.282Z,101510.78
2022-10-05T17:58:23.921Z,101514.25
2022-10-05T18:00:56.660Z,101510.53
2022-10-05T18:07:21.860Z,101519.59
2022-10-05T18:10:17.504Z,101513.72
2022-10-05T18:13:10.887Z,101508.94
2022-10-05T18:15:44.878Z,101522.25
2022-10-05T18:18:32.919Z,101511.59
2022-10-05T18:21:22.882Z,101521.44
2022-10-05T18:23:58.454Z,101518.00
2022-10-05T18:26:59.517Z,101524.91
2022-10-05T18:30:02.900Z,101529.97
2022-10-05T18:32:38.209Z,101530.78
2022-10-05T18:35:32.725Z,101528.91
2022-10-05T18:38:32.868Z,101528.13
2022-10-05T18:41:21.430Z,101527.59
2022-10-05T18:44:17.180Z,101534.50
2022-10-05T18:47:07.188Z,101537.97
2022-10-05T18:49:53.695Z,101548.38
2022-10-05T18:53:12.803Z,101551.81
2022-10-05T18:55:47.705Z,101552.09
2022-10-05T18:58:35.145Z,101561.41
2022-10-05T19:01:16.904Z,101556.88
2022-10-05T19:03:43.483Z,101561.69
2022-10-05T19:06:26.886Z,101565.94
2022-10-05T19:12:25.293Z,101580.34
2022-10-05T19:15:13.193Z,101578.75
2022-10-05T19:18:12.174Z,101582.75
2022-10-05T19:20:53.903Z,101585.94
2022-10-05T19:23:47.585Z,101597.66
2022-10-05T19:26:33.787Z,101591.28
2022-10-05T19:29:26.983Z,101597.13
2022-10-05T19:32:02.112Z,101600.59
2022-10-05T19:34:43.431Z,101605.41
2022-10-05T19:37:20.794Z,101630.72
2022-10-05T19:39:54.138Z,101624.59
2022-10-05T19:42:58.437Z,101635.25
2022-10-05T19:45:27.407Z,101655.50
2022-10-05T19:48:26.890Z,101699.69
2022-10-05T19:51:01.263Z,101730.94
2022-10-05T19:53:37.019Z,101729.00
2022-10-05T19:56:25.205Z,101729.22
2022-10-05T19:58:56.471Z,101746.75
2022-10-05T20:01:31.346Z,101742.81
2022-10-05T20:04:02.255Z,101739.78
2022-10-05T20:06:31.126Z,101743.94
2022-10-05T20:09:01.306Z,101743.22
2022-10-05T20:11:29.160Z,101751.94
2022-10-05T20:13:56.829Z,101767.22
2022-10-05T20:16:47.647Z,101758.72
2022-10-05T20:19:56.745Z,101784.97
2022-10-05T20:22:31.472Z,101792.06
2022-10-05T20:25:01.179Z,101795.75
2022-10-05T20:27:37.119Z,101805.56
2022-10-05T20:30:09.250Z,101805.81
2022-10-05T20:32:35.717Z,101809.75
2022-10-05T20:35:06.853Z,101820.59
2022-10-05T20:37:41.292Z,101818.75
2022-10-05T20:40:11.123Z,101817.88
2022-10-05T20:42:37.789Z,101825.03
2022-10-05T20:45:06.367Z,101826.88
2022-10-05T20:47:33.753Z,101827.44
2022-10-05T20:50:07.685Z,101837.00
2022-10-05T20:52:38.133Z,101847.88
2022-10-05T20:55:08.391Z,101847.38
2022-10-05T20:57:38.498Z,101856.38
2022-10-05T21:00:06.177Z,101867.00
2022-10-05T21:02:33.032Z,101873.13
2022-10-05T21:04:59.764Z,101873.13
2022-10-05T21:07:31.374Z,101898.84
2022-10-05T21:09:58.349Z,101915.25
2022-10-05T21:12:24.903Z,101923.69
2022-10-05T21:14:53.720Z,101933.75
2022-10-05T21:17:20.407Z,101922.41
2022-10-05T21:19:57.533Z,101898.81
2022-10-05T21:22:26.574Z,101899.78
2022-10-05T21:24:55.114Z,101905.06
2022-10-05T21:27:21.661Z,101909.25
2022-10-05T21:29:49.949Z,101904.66
2022-10-05T21:32:16.617Z,101918.41
2022-10-05T21:34:43.261Z,101914.16
2022-10-05T21:37:12.075Z,101921.53
2022-10-05T21:39:39.979Z,101919.13
2022-10-05T21:42:14.133Z,101916.13
2022-10-05T21:44:46.716Z,101919.47
2022-10-05T21:47:13.729Z,101929.97
2022-10-05T21:49:41.548Z,101935.75
2022-10-05T21:52:08.210Z,101937.25
2022-10-05T21:54:35.289Z,101944.31
2022-10-05T21:57:03.008Z,101942.81
2022-10-05T21:59:32.598Z,101948.25
2022-10-05T22:01:59.457Z,101963.56
2022-10-05T22:04:26.031Z,101959.75
2022-10-05T22:06:55.537Z,101966.31
2022-10-05T22:09:22.078Z,101968.28
2022-10-05T22:11:49.240Z,101975.53
2022-10-05T22:14:16.338Z,101980.19
2022-10-05T22:16:44.582Z,101987.78
2022-10-05T22:19:16.174Z,101984.78
2022-10-05T22:21:42.903Z,101996.84
2022-10-05T22:24:11.640Z,102007.91
2022-10-05T22:26:40.366Z,102008.59
2022-10-05T22:29:09.802Z,102016.75
2022-10-05T22:31:36.832Z,102018.81
2022-10-05T22:34:03.344Z,102028.03
2022-10-05T22:36:29.854Z,102029.06
2022-10-05T22:38:56.497Z,102035.63
2022-10-05T22:41:23.172Z,102042.44
2022-10-05T22:43:50.847Z,102038.16
2022-10-05T22:46:18.264Z,102046.09
2022-10-05T22:48:45.436Z,102052.44
2022-10-05T22:51:12.204Z,102055.53
2022-10-05T22:53:38.798Z,102055.75
2022-10-05T22:56:10.960Z,102060.81
2022-10-05T22:58:38.391Z,102071.84
2022-10-05T23:01:08.312Z,102076.34
2022-10-05T23:03:35.373Z,102079.22
2022-10-05T23:06:07.631Z,102083.94
2022-10-05T23:08:35.910Z,102085.97
2022-10-05T23:11:13.746Z,102084.81
2022-10-05T23:13:40.797Z,102088.94
2022-10-05T23:16:12.888Z,102098.94
2022-10-05T23:18:40.102Z,102092.25
2022-10-05T23:21:08.796Z,102104.69
2022-10-05T23:23:37.098Z,102106.19
2022-10-05T23:26:05.364Z,102113.88
2022-10-05T23:28:32.529Z,102113.66
2022-10-05T23:31:07.824Z,102117.91
2022-10-05T23:33:35.427Z,102116.28
2022-10-05T23:36:04.772Z,102127.69
2022-10-05T23:38:31.531Z,102127.91
2022-10-05T23:40:59.778Z,102130.53
2022-10-05T23:43:27.296Z,102141.13
2022-10-05T23:45:53.963Z,102139.50
2022-10-05T23:48:20.567Z,102151.72
2022-10-05T23:50:48.249Z,102152.75
2022-10-05T23:53:16.014Z,102156.91
2022-10-05T23:55:43.003Z,102164.25
2022-10-05T23:58:10.063Z,102165.72
